Wednesday, June 20, 2018, 7:44 AM GMT
Back to Local

CYYY, Mont Joli, Que.

Location: , , Canada Lat: 48.6
Local Time: 7:44 AM GMT ( 7:44 GMT) Lon: -68.217
Time Zone: GMT Elev: 157 ft

Show me the last for .
Show Decoded

2018-06-20 07:00 METAR CYYY 200700Z 22008KT 30SM FEW080 14/07 A2965 RMK AC1 SLP044 DENSITY ALT
                 500FT =
2018-06-20 06:00 METAR CYYY 200600Z 22009KT 30SM FEW080 14/07 A2968 RMK AC1 SLP052 DENSITY ALT
                 500FT =
2018-06-20 05:00 METAR CYYY 200500Z 23012KT 30SM FEW081 15/06 A2967 RMK AC2 SLP050 DENSITY ALT
                 500FT =
2018-06-20 04:00 METAR CYYY 200400Z 24009KT 30SM FEW081 15/07 A2968 RMK AC2 SLP052 DENSITY ALT
                 500FT =
2018-06-20 03:00 METAR CYYY 200300Z 20005KT 30SM FEW085 12/08 A2968 RMK AC1 SLP052 DENSITY ALT
                 200FT =
2018-06-20 02:00 METAR CYYY 200200Z 16006KT 30SM FEW085 11/09 A2969 RMK AC1 SLP057 =
2018-06-20 01:00 METAR CYYY 200100Z 17003KT 30SM FEW085 13/09 A2969 RMK AC2 SLP057 DENSITY ALT
                 300FT =
2018-06-20 00:00 METAR CYYY 200000Z VRB02KT 30SM SCT081 16/09 A2969 RMK AC4 SLP055 DENSITY ALT
                 600FT =
2018-06-19 23:00 METAR CYYY 192300Z 03006KT 30SM FEW045 BKN085 17/08 A2968 RMK CU2AC3 SLP053
                 DENSITY ALT 700FT =
2018-06-19 22:00 METAR CYYY 192200Z 32007KT 30SM FEW060 FEW120 16/08 A2968 RMK SC1AC1 SLP053
                 DENSITY ALT 700FT =
2018-06-19 21:00 METAR CYYY 192100Z 27007KT 30SM SCT060 SCT090 16/08 A2967 RMK SC3AC1 SLP049
                 DENSITY ALT 600FT =
2018-06-19 20:00 METAR CYYY 192000Z 31008KT 30SM SCT045 17/08 A2966 RMK SC4 SLP045 DENSITY ALT
                 700FT =
2018-06-19 19:00 METAR CYYY 191900Z 31010KT 30SM SCT055 17/08 A2965 RMK SC4 SLP042 DENSITY ALT
                 800FT =
2018-06-19 18:00 METAR CYYY 191800Z 30012KT 30SM BKN052 14/08 A2965 RMK SC7 SLP042 DENSITY ALT
                 400FT =
2018-06-19 17:00 METAR CYYY 191700Z 31010KT 250V320 30SM BKN049 12/07 A2963 RMK SC7 SLP037
                 DENSITY ALT 200FT =
2018-06-19 16:00 METAR CYYY 191600Z 26010KT 30SM BKN046 12/07 A2963 RMK SC7 SLP036 DENSITY ALT
                 300FT =
2018-06-19 15:00 METAR CYYY 191500Z 27011KT 30SM BKN042 12/07 A2961 RMK SC7 SLP031 DENSITY ALT
                 300FT =
2018-06-19 14:00 METAR CYYY 191400Z 27012G18KT 30SM BKN040 12/07 A2961 RMK SC7 SLP028 DENSITY ALT
                 200FT =
2018-06-19 13:00 METAR CYYY 191300Z 28012KT 30SM BKN043 12/08 A2960 RMK SC7 SLP026 DENSITY ALT
                 200FT =
2018-06-19 12:00 METAR CYYY 191200Z 27010G17KT 30SM BKN042 12/07 A2959 RMK SC7 SLP022 DENSITY ALT
                 200FT =
2018-06-19 11:00 METAR CYYY 191100Z 28014KT 30SM BKN042 11/07 A2958 RMK SC7 SLP018 DENSITY ALT
                 200FT =
2018-06-19 10:00 METAR CYYY 191000Z 27013KT 30SM SCT044 BKN054 12/08 A2956 RMK SC3SC4 SLP012
                 DENSITY ALT 300FT =
2018-06-19 09:00 METAR CYYY 190900Z 26012KT 30SM SCT045 BKN072 13/08 A2953 RMK SC4AC3 SLP002
                 DENSITY ALT 400FT =
2018-06-19 08:00 METAR CYYY 190800Z 27010KT 210V280 30SM SCT072 13/09 A2952 RMK AC4 SLP998
                 DENSITY ALT 400FT =

Support USWX by starting your Amazon purchase here.